createdAt,value
2023-04-03T00:01:13.888Z,101624.91
2023-04-03T00:04:19.706Z,101613.09
2023-04-03T00:07:23.652Z,101626.00
2023-04-03T00:10:27.920Z,101613.81
2023-04-03T00:13:32.468Z,101620.50
2023-04-03T00:16:36.798Z,101617.59
2023-04-03T00:19:41.177Z,101608.16
2023-04-03T00:22:45.954Z,101619.38
2023-04-03T00:25:50.261Z,101598.25
2023-04-03T00:28:54.722Z,101618.84
2023-04-03T00:31:58.626Z,101597.56
2023-04-03T00:35:02.472Z,101618.34
2023-04-03T00:38:06.940Z,101589.81
2023-04-03T00:41:11.555Z,101600.88
2023-04-03T00:44:24.455Z,101592.78
2023-04-03T00:47:29.484Z,101612.47
2023-04-03T00:50:41.083Z,101607.31
2023-04-03T00:54:07.377Z,101604.22
2023-04-03T00:57:13.656Z,101589.50
2023-04-03T01:00:21.885Z,101613.91
2023-04-03T01:03:26.969Z,101597.34
2023-04-03T01:06:37.552Z,101602.44
2023-04-03T01:09:47.174Z,101584.63
2023-04-03T01:12:52.974Z,101600.38
2023-04-03T01:15:57.885Z,101578.41
2023-04-03T01:19:03.751Z,101546.59
2023-04-03T01:22:28.248Z,101561.13
2023-04-03T01:25:32.702Z,101584.03
2023-04-03T01:28:38.364Z,101559.00
2023-04-03T01:31:45.970Z,101599.50
2023-04-03T01:34:51.251Z,101567.13
2023-04-03T01:37:55.693Z,101593.91
2023-04-03T01:40:59.952Z,101589.66
2023-04-03T01:44:05.687Z,101546.41
2023-04-03T01:47:10.815Z,101576.00
2023-04-03T01:50:17.024Z,101562.63
2023-04-03T01:53:22.385Z,101544.63
2023-04-03T01:56:26.850Z,101557.88
2023-04-03T01:59:31.365Z,101556.81
2023-04-03T02:02:35.992Z,101557.66
2023-04-03T02:05:40.825Z,101558.38
2023-04-03T02:08:45.130Z,101542.94
2023-04-03T02:11:49.871Z,101531.78
2023-04-03T02:14:54.593Z,101548.22
2023-04-03T02:17:59.167Z,101526.69
2023-04-03T02:21:06.115Z,101525.97
2023-04-03T02:24:10.610Z,101515.09
2023-04-03T02:27:15.331Z,101522.75
2023-04-03T02:30:19.956Z,101512.81
2023-04-03T02:33:24.347Z,101510.38
2023-04-03T02:36:28.629Z,101503.47
2023-04-03T02:39:37.276Z,101506.84
2023-04-03T02:42:41.365Z,101489.91
2023-04-03T02:45:45.665Z,101488.84
2023-04-03T02:48:53.384Z,101478.66
2023-04-03T02:51:58.153Z,101427.66
2023-04-03T02:55:02.572Z,101471.69
2023-04-03T02:58:09.593Z,101447.34
2023-04-03T03:01:14.542Z,101471.91
2023-04-03T03:04:19.704Z,101446.72
2023-04-03T03:07:23.644Z,101465.50
2023-04-03T03:10:27.645Z,101450.06
2023-04-03T03:13:33.318Z,101456.59
2023-04-03T03:16:40.144Z,101452.41
2023-04-03T03:19:45.264Z,101456.94
2023-04-03T03:22:51.539Z,101427.91
2023-04-03T03:26:00.412Z,101425.31
2023-04-03T03:29:04.827Z,101437.84
2023-04-03T03:32:09.874Z,101430.19
2023-04-03T03:35:13.820Z,101419.41
2023-04-03T03:38:17.792Z,101387.47
2023-04-03T03:41:22.465Z,101402.75
2023-04-03T03:44:26.508Z,101402.75
2023-04-03T03:47:31.375Z,101389.94
2023-04-03T03:50:36.246Z,101355.25
2023-04-03T03:53:40.870Z,101399.91
2023-04-03T03:56:50.403Z,101406.78
2023-04-03T03:59:54.522Z,101396.91
2023-04-03T04:02:59.638Z,101391.81
2023-04-03T04:06:05.510Z,101399.66
2023-04-03T04:09:11.872Z,101381.31
2023-04-03T04:12:17.710Z,101374.38
2023-04-03T04:15:24.855Z,101375.38
2023-04-03T04:18:29.306Z,101369.31
2023-04-03T04:21:33.570Z,101334.78
2023-04-03T04:24:38.642Z,101355.13
2023-04-03T04:27:45.668Z,101357.34
2023-04-03T04:30:52.206Z,101341.59
2023-04-03T04:33:58.609Z,101360.19
2023-04-03T04:37:02.683Z,101355.19
2023-04-03T04:40:08.372Z,101347.25
2023-04-03T04:43:16.074Z,101353.50
2023-04-03T04:46:24.250Z,101343.47
2023-04-03T04:49:32.816Z,101344.34
2023-04-03T04:52:38.167Z,101333.19
2023-04-03T04:55:44.760Z,101334.28
2023-04-03T04:58:49.421Z,101338.22
2023-04-03T05:01:56.577Z,101330.69
2023-04-03T05:05:05.172Z,101330.28
2023-04-03T05:08:12.538Z,101330.09
2023-04-03T05:11:19.468Z,101326.06
2023-04-03T05:14:27.012Z,101309.59
2023-04-03T05:17:33.955Z,101282.25
2023-04-03T05:20:39.384Z,101299.78
2023-04-03T05:23:43.887Z,101300.94
2023-04-03T05:26:52.083Z,101299.38
2023-04-03T05:29:58.127Z,101299.47
2023-04-03T05:33:02.709Z,101292.06
2023-04-03T05:36:22.521Z,101277.38
2023-04-03T05:39:33.481Z,101269.03
2023-04-03T05:42:38.838Z,101282.34
2023-04-03T05:45:47.023Z,101290.41
2023-04-03T05:48:52.629Z,101276.66
2023-04-03T05:51:59.532Z,101250.53
2023-04-03T05:55:07.502Z,101285.38
2023-04-03T05:58:13.013Z,101274.41
2023-04-03T06:01:18.212Z,101271.59
2023-04-03T06:04:23.388Z,101263.53
2023-04-03T06:07:30.186Z,101271.13
2023-04-03T06:10:34.652Z,101266.31
2023-04-03T06:13:41.801Z,101262.91
2023-04-03T06:16:48.921Z,101271.41
2023-04-03T06:19:52.981Z,101270.47
2023-04-03T06:22:57.440Z,101150.44
2023-04-03T06:26:02.426Z,101264.97
2023-04-03T06:29:06.276Z,101269.63
2023-04-03T06:32:09.968Z,101257.31
2023-04-03T06:35:17.794Z,101245.97
2023-04-03T06:38:22.146Z,101247.06
2023-04-03T06:41:27.442Z,101248.66
2023-04-03T06:44:31.533Z,101247.56
2023-04-03T06:47:35.727Z,101242.16
2023-04-03T06:50:40.209Z,101235.47
2023-04-03T06:53:44.572Z,101240.59
2023-04-03T06:56:48.816Z,101246.53
2023-04-03T06:59:53.308Z,101246.41
2023-04-03T07:02:58.568Z,101244.28
2023-04-03T07:06:03.291Z,101246.69
2023-04-03T07:09:08.008Z,101241.59
2023-04-03T07:12:12.726Z,101242.19
2023-04-03T07:15:17.198Z,101247.22
2023-04-03T07:18:23.144Z,101226.50
2023-04-03T07:21:27.907Z,101215.88
2023-04-03T07:24:32.725Z,101237.69
2023-04-03T07:27:37.224Z,101248.38
2023-04-03T07:30:50.154Z,101252.59
2023-04-03T07:33:57.863Z,101251.19
2023-04-03T07:37:02.917Z,101255.81
2023-04-03T07:40:08.780Z,101242.03
2023-04-03T07:43:13.218Z,101255.47
2023-04-03T07:46:17.439Z,101258.72
2023-04-03T07:49:21.850Z,101258.84
2023-04-03T07:52:27.485Z,101253.63
2023-04-03T07:55:35.479Z,101245.38
2023-04-03T07:58:40.021Z,101203.03
2023-04-03T08:01:44.434Z,101226.09
2023-04-03T08:04:48.496Z,101230.81
2023-04-03T08:07:53.423Z,101232.59
2023-04-03T08:11:02.020Z,101247.13
2023-04-03T08:14:06.450Z,101225.41
2023-04-03T08:17:13.424Z,101231.09
2023-04-03T08:20:17.730Z,101200.91
2023-04-03T08:23:28.552Z,101227.28
2023-04-03T08:26:32.954Z,101223.66
2023-04-03T08:29:39.546Z,101234.19
2023-04-03T08:32:45.035Z,101216.53
2023-04-03T08:35:49.507Z,101218.59
2023-04-03T08:38:55.462Z,101236.19
2023-04-03T08:42:04.993Z,101238.19
2023-04-03T08:45:21.699Z,101237.63
2023-04-03T08:48:46.846Z,101240.53
2023-04-03T08:51:52.912Z,101241.63
2023-04-03T08:55:02.777Z,101245.59
2023-04-03T08:58:11.885Z,101212.28
2023-04-03T09:01:30.882Z,101258.56
2023-04-03T09:04:36.843Z,101243.22
2023-04-03T09:07:48.493Z,101238.41
2023-04-03T09:11:14.140Z,101249.38
2023-04-03T09:14:28.400Z,101253.75
2023-04-03T09:17:53.982Z,101250.56
2023-04-03T09:21:21.446Z,101231.84
2023-04-03T09:24:26.974Z,101210.84
2023-04-03T09:27:31.235Z,101230.81
2023-04-03T09:30:37.482Z,101214.94
2023-04-03T09:33:42.845Z,101241.09
2023-04-03T09:36:48.902Z,101239.06
2023-04-03T09:39:56.954Z,101225.94
2023-04-03T09:43:22.354Z,101201.34
2023-04-03T09:46:30.539Z,101207.59
2023-04-03T09:49:35.634Z,101203.63
2023-04-03T09:52:41.030Z,101174.00
2023-04-03T09:55:46.840Z,101181.00
2023-04-03T09:59:10.285Z,101168.66
2023-04-03T10:02:31.941Z,101165.97
2023-04-03T10:05:37.338Z,101156.91
2023-04-03T10:08:42.258Z,101163.22
2023-04-03T10:12:06.983Z,101178.44
2023-04-03T10:15:17.784Z,101181.28
2023-04-03T10:18:52.738Z,101178.69
2023-04-03T10:22:18.185Z,101196.69
2023-04-03T10:25:54.243Z,101182.00
2023-04-03T10:29:05.121Z,101118.75
2023-04-03T10:32:26.087Z,101112.34
2023-04-03T10:36:26.650Z,101060.03
2023-04-03T10:40:22.373Z,101127.88
2023-04-03T10:43:44.942Z,101106.72
2023-04-03T10:46:55.459Z,101137.22
2023-04-03T10:50:19.345Z,101122.69
2023-04-03T10:53:43.684Z,101118.25
2023-04-03T10:57:04.475Z,101110.84
2023-04-03T11:00:25.015Z,101153.88
2023-04-03T11:03:37.700Z,101153.56
2023-04-03T11:06:55.322Z,101171.53
2023-04-03T11:10:14.624Z,101138.41
2023-04-03T11:13:35.064Z,101144.28
2023-04-03T11:16:54.106Z,101172.31
2023-04-03T11:20:22.474Z,101232.28
2023-04-03T11:23:49.501Z,101236.47
2023-04-03T11:26:58.573Z,101228.91
2023-04-03T11:30:03.903Z,101219.19
2023-04-03T11:33:36.250Z,101232.50
2023-04-03T11:36:52.308Z,101226.72
2023-04-03T11:40:06.511Z,101220.56
2023-04-03T11:43:33.083Z,101205.38
2023-04-03T11:46:56.440Z,101225.94
2023-04-03T11:50:08.838Z,101180.38
2023-04-03T11:53:15.838Z,101182.78
2023-04-03T11:56:25.554Z,101146.13
2023-04-03T11:59:39.566Z,101133.41
2023-04-03T12:02:53.735Z,101208.34
2023-04-03T12:06:08.285Z,101226.41
2023-04-03T12:09:27.526Z,101228.13
2023-04-03T12:12:33.567Z,101219.00
2023-04-03T12:15:52.376Z,101193.19
2023-04-03T12:19:00.317Z,101164.41
2023-04-03T12:22:05.505Z,101183.41
2023-04-03T12:25:52.351Z,101147.19
2023-04-03T12:28:57.657Z,101219.59
2023-04-03T12:32:32.790Z,101192.75
2023-04-03T12:35:42.614Z,101178.22
2023-04-03T12:39:28.490Z,101170.31
2023-04-03T12:43:11.770Z,101148.59
2023-04-03T12:46:19.507Z,101129.22
2023-04-03T12:49:47.052Z,101126.56
2023-04-03T12:52:58.795Z,101138.56
2023-04-03T12:56:33.564Z,101146.47
2023-04-03T12:59:38.779Z,101147.41
2023-04-03T13:02:48.361Z,101148.53
2023-04-03T13:05:54.383Z,101133.00
2023-04-03T13:09:04.047Z,101123.84
2023-04-03T13:12:19.032Z,101107.75
2023-04-03T13:15:43.537Z,101123.47
2023-04-03T13:18:55.981Z,101144.72
2023-04-03T13:22:50.703Z,101106.41
2023-04-03T13:25:55.371Z,101118.63
2023-04-03T13:29:06.184Z,101139.66
2023-04-03T13:32:23.936Z,101104.22
2023-04-03T13:35:31.247Z,101084.59
2023-04-03T13:38:36.193Z,101088.97
2023-04-03T13:41:42.473Z,101087.28
2023-04-03T13:44:46.865Z,101104.63
2023-04-03T13:47:52.510Z,101106.25
2023-04-03T13:51:29.491Z,101084.03
2023-04-03T13:54:40.585Z,101071.66
2023-04-03T13:57:58.468Z,101041.84
2023-04-03T14:01:22.008Z,101046.22
2023-04-03T14:04:52.466Z,101061.25
2023-04-03T14:07:57.345Z,101048.84
2023-04-03T14:11:02.245Z,101020.66
2023-04-03T14:14:23.269Z,101055.00
2023-04-03T14:17:29.569Z,101079.03
2023-04-03T14:20:33.632Z,101114.81
2023-04-03T14:23:37.942Z,101088.84
2023-04-03T14:26:42.706Z,101074.03
2023-04-03T14:29:47.634Z,101093.25
2023-04-03T14:32:52.607Z,101128.56
2023-04-03T14:35:57.890Z,101143.63
2023-04-03T14:39:02.726Z,101170.25
2023-04-03T14:42:07.579Z,101155.28
2023-04-03T14:45:14.634Z,101167.50
2023-04-03T14:48:25.794Z,101123.72
2023-04-03T14:51:30.429Z,101158.78
2023-04-03T14:54:35.514Z,101150.13
2023-04-03T14:57:41.484Z,101194.13
2023-04-03T15:00:46.962Z,101208.34
2023-04-03T15:03:51.592Z,101179.41
2023-04-03T15:06:56.657Z,101192.75
2023-04-03T15:10:17.970Z,101202.41
2023-04-03T15:13:22.830Z,101193.66
2023-04-03T15:16:27.629Z,101183.53
2023-04-03T15:19:42.931Z,101214.06
2023-04-03T15:22:47.964Z,101201.53
2023-04-03T15:25:52.332Z,101180.28
2023-04-03T15:28:56.842Z,101215.41
2023-04-03T15:32:01.567Z,101200.31
2023-04-03T15:35:06.325Z,101211.00
2023-04-03T15:38:11.808Z,101169.72
2023-04-03T15:41:15.808Z,101190.94
2023-04-03T15:44:20.406Z,101218.53
2023-04-03T15:47:24.959Z,101190.38
2023-04-03T15:50:29.494Z,101187.84
2023-04-03T15:53:33.798Z,101208.03
2023-04-03T15:56:38.343Z,101156.44
2023-04-03T15:59:42.666Z,101222.25
2023-04-03T16:02:49.082Z,101234.56
2023-04-03T16:05:53.510Z,101246.22
2023-04-03T16:08:59.893Z,101234.56
2023-04-03T16:12:04.778Z,101228.38
2023-04-03T16:15:09.503Z,101230.13
2023-04-03T16:18:15.836Z,101223.88
2023-04-03T16:21:20.489Z,101224.72
2023-04-03T16:24:25.501Z,101227.34
2023-04-03T16:27:31.823Z,101255.50
2023-04-03T16:30:36.758Z,101267.75
2023-04-03T16:33:41.326Z,101268.59
2023-04-03T16:36:45.910Z,101248.53
2023-04-03T16:39:50.444Z,101258.25
2023-04-03T16:42:54.900Z,101238.00
2023-04-03T16:46:00.155Z,101224.66
2023-04-03T16:49:05.169Z,101268.69
2023-04-03T16:52:09.247Z,101277.50
2023-04-03T16:55:13.687Z,101264.22
2023-04-03T16:58:18.482Z,101257.44
2023-04-03T17:01:24.101Z,101227.59
2023-04-03T17:04:28.764Z,101264.56
2023-04-03T17:07:33.328Z,101257.72
2023-04-03T17:10:37.325Z,101292.84
2023-04-03T17:13:41.789Z,101304.34
2023-04-03T17:16:46.510Z,101285.00
2023-04-03T17:19:51.315Z,101293.84
2023-04-03T17:22:55.768Z,101275.44
2023-04-03T17:25:59.749Z,101293.56
2023-04-03T17:29:03.732Z,101308.47
2023-04-03T17:32:08.476Z,101324.41
2023-04-03T17:35:13.040Z,101312.09
2023-04-03T17:38:17.904Z,101321.88
2023-04-03T17:41:23.805Z,101313.84
2023-04-03T17:44:27.877Z,101303.41
2023-04-03T17:47:32.367Z,101329.06
2023-04-03T17:50:38.659Z,101334.31
2023-04-03T17:53:43.370Z,101330.94
2023-04-03T17:56:50.418Z,101319.69
2023-04-03T17:59:54.879Z,101328.53
2023-04-03T18:02:59.456Z,101338.31
2023-04-03T18:06:08.863Z,101330.56
2023-04-03T18:09:20.632Z,101350.03
2023-04-03T18:12:25.204Z,101345.75
2023-04-03T18:15:29.370Z,101349.41
2023-04-03T18:18:33.785Z,101345.03
2023-04-03T18:21:38.866Z,101321.13
2023-04-03T18:24:44.407Z,101326.53
2023-04-03T18:27:49.861Z,101301.91
2023-04-03T18:30:54.322Z,101313.41
2023-04-03T18:33:59.953Z,101370.66
2023-04-03T18:37:04.202Z,101376.16
2023-04-03T18:40:09.871Z,101378.75
2023-04-03T18:43:14.690Z,101374.41
2023-04-03T18:46:20.492Z,101382.28
2023-04-03T18:49:24.554Z,101382.25
2023-04-03T18:52:28.330Z,101378.75
2023-04-03T18:55:33.074Z,101368.19
2023-04-03T18:58:37.943Z,101382.28
2023-04-03T19:01:42.382Z,101389.41
2023-04-03T19:04:47.865Z,101391.94
2023-04-03T19:07:54.350Z,101398.13
2023-04-03T19:10:58.734Z,101407.09
2023-04-03T19:14:14.447Z,101411.50
2023-04-03T19:17:21.119Z,101420.41
2023-04-03T19:20:25.856Z,101394.88
2023-04-03T19:23:30.260Z,101423.91
2023-04-03T19:26:34.267Z,101431.88
2023-04-03T19:29:38.291Z,101423.94
2023-04-03T19:32:43.232Z,101424.84
2023-04-03T19:35:47.785Z,101437.19
2023-04-03T19:38:52.175Z,101430.09
2023-04-03T19:41:56.656Z,101421.34
2023-04-03T19:45:02.965Z,101437.22
2023-04-03T19:48:07.842Z,101415.16
2023-04-03T19:51:11.756Z,101438.09
2023-04-03T19:54:16.184Z,101432.78
2023-04-03T19:57:20.850Z,101449.56
2023-04-03T20:00:25.379Z,101468.06
2023-04-03T20:03:29.333Z,101477.78
2023-04-03T20:06:33.454Z,101464.56
2023-04-03T20:09:37.970Z,101431.88
2023-04-03T20:12:42.357Z,101471.53
2023-04-03T20:15:46.797Z,101470.69
2023-04-03T20:18:52.553Z,101479.47
2023-04-03T20:21:59.302Z,101482.13
2023-04-03T20:25:06.775Z,101495.31
2023-04-03T20:28:13.122Z,101473.25
2023-04-03T20:31:18.317Z,101495.25
2023-04-03T20:34:22.883Z,101467.84
2023-04-03T20:37:28.666Z,101480.19
2023-04-03T20:40:32.611Z,101507.41
2023-04-03T20:43:39.142Z,101509.28
2023-04-03T20:49:54.569Z,101503.03
2023-04-03T20:52:58.913Z,101490.69
2023-04-03T20:56:04.679Z,101515.44
2023-04-03T20:59:11.678Z,101515.50
2023-04-03T21:02:16.540Z,101498.72
2023-04-03T21:05:23.835Z,101499.63
2023-04-03T21:09:06.233Z,101522.63
2023-04-03T21:12:48.199Z,101528.78
2023-04-03T21:16:00.521Z,101529.63
2023-04-03T21:19:10.312Z,101538.38
2023-04-03T21:22:16.923Z,101548.00
2023-04-03T21:25:21.872Z,101534.81
2023-04-03T21:28:27.328Z,101534.84
2023-04-03T21:32:28.025Z,101544.56
2023-04-03T21:35:32.617Z,101559.59
2023-04-03T21:38:37.501Z,101562.22
2023-04-03T21:41:42.047Z,101557.88
2023-04-03T21:44:58.338Z,101558.91
2023-04-03T21:48:10.965Z,101561.41
2023-04-03T21:51:15.197Z,101569.16
2023-04-03T21:54:20.406Z,101558.78
2023-04-03T21:57:24.883Z,101567.56
2023-04-03T22:00:30.378Z,101560.00
2023-04-03T22:03:35.778Z,101560.94
2023-04-03T22:06:40.115Z,101573.53
2023-04-03T22:09:45.085Z,101569.88
2023-04-03T22:12:49.762Z,101578.22
2023-04-03T22:15:54.360Z,101553.22
2023-04-03T22:19:02.577Z,101572.88
2023-04-03T22:22:06.977Z,101555.47
2023-04-03T22:25:12.688Z,101573.88
2023-04-03T22:28:17.389Z,101569.13
2023-04-03T22:31:21.860Z,101514.41
2023-04-03T22:34:26.346Z,101563.06
2023-04-03T22:37:31.305Z,101571.31
2023-04-03T22:40:35.721Z,101563.59
2023-04-03T22:43:40.791Z,101532.78
2023-04-03T22:46:45.140Z,101550.63
2023-04-03T22:49:49.752Z,101534.28
2023-04-03T22:52:54.188Z,101564.66
2023-04-03T22:56:02.529Z,101583.41
2023-04-03T22:59:07.091Z,101575.53
2023-04-03T23:02:11.822Z,101584.97
2023-04-03T23:05:16.601Z,101582.50
2023-04-03T23:08:21.322Z,101581.69
2023-04-03T23:11:26.181Z,101581.94
2023-04-03T23:14:30.280Z,101591.22
2023-04-03T23:17:37.719Z,101583.22
2023-04-03T23:20:42.285Z,101588.63
2023-04-03T23:23:46.910Z,101592.97
2023-04-03T23:26:51.761Z,101612.25
2023-04-03T23:29:57.617Z,101600.44
2023-04-03T23:33:01.675Z,101607.72
2023-04-03T23:36:09.690Z,101612.69
2023-04-03T23:39:13.576Z,101622.38
2023-04-03T23:42:18.289Z,101621.19
2023-04-03T23:45:22.213Z,101602.81
2023-04-03T23:48:26.014Z,101604.97
2023-04-03T23:51:30.241Z,101625.81
2023-04-03T23:54:34.637Z,101620.06
2023-04-03T23:57:38.944Z,101603.50
